Ryeland, Pennsylvania
Current Conditions -  °F | °C
As of 12:54 AM on Saturday 25 Oct 2014 (Local Time) from KRDG Reporting Station
Clear Clear  
Wind Chill: 11°   Ceiling: Unl
Heat Index: 11°   Visibility: 10mi
Dew Point:   Wind: 6mph
Humidity: 54%   Direction: 280°W
Pressure: 29.91"   Gusts: NA
Location:  40.3905°N, 76.2083°W
Report Text: KRDG 250454Z AUTO 28005KT 10SM CLR 11/02 A2991 RMK AO2 SLP132 T01110022 402110106
Loading
Personal Weather Stations






























Interactive Weather Map
Tropical Storm Tracking
New forecast layout! Learn more

10-Day Weather Forecast

Advertisements
Track Severe Weather on mobile